Time;durP1;ratioP1;P1;durP2;ratioP2;P2;SDS_P1;SDS_P2;PMS_P1;PMS_P2;Temp;Humidity;BMP_temperature;BMP_pressure;BME280_temperature;BME280_humidity;BME280_pressure;Samples;Min_cycle;Max_cycle;Signal;HPM_P1;HPM_P2
2022/12/17 13:06:51;;;;;;;68.72;18.77;;;1.50;99.90;;;;;;5068977;28;20549;-44
2022/12/17 13:09:22;;;;;;;51.75;17.63;;;1.60;99.90;;;;;;5066816;28;20431;-44
2022/12/17 13:11:47;;;;;;;64.95;19.30;;;1.60;99.90;;;;;;5063759;28;20057;-45
2022/12/17 13:14:18;;;;;;;59.03;19.75;;;1.70;99.90;;;;;;5053213;28;20511;-43
2022/12/17 13:16:43;;;;;;;58.35;19.02;;;1.60;99.90;;;;;;5056939;28;20051;-44
2022/12/17 13:19:37;;;;;;;47.75;18.25;;;1.60;99.90;;;;;;5057877;28;20392;-46
2022/12/17 13:22:16;;;;;;;70.72;21.85;;;1.60;99.90;;;;;;5052874;28;20481;-46
2022/12/17 13:24:47;;;;;;;49.45;19.15;;;1.50;99.90;;;;;;5055757;28;20024;-43
2022/12/17 13:27:51;;;;;;;63.67;19.92;;;1.50;99.90;;;;;;5061795;28;20520;-44
2022/12/17 13:30:17;;;;;;;56.25;18.85;;;1.50;99.90;;;;;;5047774;28;20040;-40
2022/12/17 13:33:06;;;;;;;66.97;19.85;;;1.50;99.90;;;;;;5046792;28;20044;-42
2022/12/17 13:35:56;;;;;;;51.63;16.73;;;1.50;99.90;;;;;;5047651;28;20465;-48
2022/12/17 13:38:40;;;;;;;58.10;19.63;;;1.50;99.90;;;;;;5054974;28;20032;-44
2022/12/17 13:41:11;;;;;;;56.88;19.02;;;1.60;99.90;;;;;;5058221;28;20029;-43
2022/12/17 13:43:49;;;;;;;66.03;21.23;;;1.50;99.90;;;;;;5061228;28;20495;-56
2022/12/17 13:46:24;;;;;;;65.55;20.73;;;1.50;99.90;;;;;;5059763;28;20514;-46
2022/12/17 13:48:56;;;;;;;52.72;17.13;;;1.50;99.90;;;;;;5052063;28;20087;-43
2022/12/17 13:51:23;;;;;;;60.72;18.73;;;1.40;99.90;;;;;;5056048;28;20023;-45
2022/12/17 13:53:58;;;;;;;64.28;18.30;;;1.40;99.90;;;;;;5056058;28;20025;-43
2022/12/17 13:56:28;;;;;;;53.85;19.35;;;1.30;99.90;;;;;;5064023;28;20043;-44
2022/12/17 13:58:56;;;;;;;49.67;17.15;;;1.30;99.90;;;;;;5062193;28;20029;-46
2022/12/17 14:01:24;;;;;;;59.20;17.95;;;1.20;99.90;;;;;;5076630;28;20380;-42
2022/12/17 14:04:23;;;;;;;64.40;18.88;;;1.20;99.90;;;;;;5064285;28;20036;-43
2022/12/17 14:06:50;;;;;;;68.35;18.83;;;1.10;99.90;;;;;;5059324;28;20562;-42
2022/12/17 14:09:19;;;;;;;60.92;18.58;;;1.10;99.90;;;;;;5064727;28;20392;-42
2022/12/17 14:14:36;;;;;;;57.97;18.30;;;1.00;99.90;;;;;;5071009;28;20070;-39
2022/12/17 14:17:02;;;;;;;60.78;18.90;;;0.90;99.90;;;;;;5070729;28;20036;-41
2022/12/17 14:19:30;;;;;;;51.92;16.48;;;0.90;99.90;;;;;;5069539;28;20488;-44
2022/12/17 14:21:56;;;;;;;56.13;18.05;;;0.90;99.90;;;;;;5057763;28;20035;-42
2022/12/17 14:24:26;;;;;;;63.35;17.30;;;0.90;99.90;;;;;;5063135;28;20021;-42
2022/12/17 14:26:54;;;;;;;49.63;17.08;;;0.90;99.90;;;;;;5067780;28;20012;-45
2022/12/17 14:29:28;;;;;;;58.47;18.90;;;0.90;99.90;;;;;;5059256;28;20028;-42
2022/12/17 14:31:56;;;;;;;57.10;17.50;;;1.00;99.90;;;;;;5067193;28;20032;-42
2022/12/17 14:34:22;;;;;;;59.20;17.45;;;1.00;99.90;;;;;;5062665;28;20077;-41
2022/12/17 14:36:54;;;;;;;64.20;18.38;;;1.00;99.90;;;;;;5069690;28;20111;-38
2022/12/17 14:39:29;;;;;;;54.40;15.57;;;0.90;99.90;;;;;;5056114;28;20048;-43
2022/12/17 14:44:52;;;;;;;53.33;15.02;;;0.90;99.90;;;;;;5074442;28;20078;-42
2022/12/17 14:47:24;;;;;;;59.63;17.02;;;0.90;99.90;;;;;;5062719;28;20085;-44
2022/12/17 14:50:15;;;;;;;61.03;18.08;;;0.80;99.90;;;;;;5075776;28;20069;-43
2022/12/17 14:52:48;;;;;;;53.58;16.42;;;0.80;99.90;;;;;;5071497;28;20041;-41
2022/12/17 14:55:56;;;;;;;58.95;17.50;;;0.70;99.90;;;;;;5062368;28;20417;-42
2022/12/17 14:58:24;;;;;;;57.78;17.08;;;0.70;99.90;;;;;;5049533;28;20037;-42
2022/12/17 15:01:12;;;;;;;58.78;15.82;;;0.70;99.90;;;;;;5054367;28;20503;-41
2022/12/17 15:03:39;;;;;;;;;;;0.60;99.90;;;;;;5078310;28;20024;-42
2022/12/17 15:06:10;;;;;;;50.60;15.10;;;0.50;99.90;;;;;;5075599;28;19999;-49
2022/12/17 15:08:40;;;;;;;54.05;16.95;;;0.60;99.90;;;;;;5074663;28;20507;-43
2022/12/17 15:11:06;;;;;;;54.80;16.48;;;0.60;99.90;;;;;;5073930;28;20023;-49
2022/12/17 15:13:32;;;;;;;55.55;16.80;;;0.60;99.90;;;;;;5074189;28;20067;-44
2022/12/17 15:15:58;;;;;;;53.15;16.70;;;0.50;99.90;;;;;;5074001;28;20059;-44
2022/12/17 15:18:24;;;;;;;57.10;17.50;;;0.40;99.90;;;;;;5074355;28;20070;-43
2022/12/17 15:20:49;;;;;;;64.30;17.05;;;0.40;99.90;;;;;;5070772;28;20404;-42
2022/12/17 15:23:17;;;;;;;54.15;16.95;;;0.40;99.90;;;;;;5073878;28;20020;-42
2022/12/17 15:25:44;;;;;;;;;;;0.40;99.90;;;;;;5074435;28;20388;-42
2022/12/17 15:28:10;;;;;;;53.63;16.90;;;0.40;99.90;;;;;;5073939;28;19912;-41
2022/12/17 15:30:36;;;;;;;49.35;14.10;;;0.40;99.90;;;;;;5054307;28;20386;-42
2022/12/17 15:33:02;;;;;;;54.92;17.45;;;0.40;99.90;;;;;;5060972;28;20020;-46
2022/12/17 15:35:28;;;;;;;48.45;15.30;;;0.40;99.90;;;;;;5073234;28;20106;-43
2022/12/17 15:37:54;;;;;;;51.20;16.00;;;0.40;99.90;;;;;;5055673;28;20028;-42
2022/12/17 15:40:20;;;;;;;56.58;15.30;;;0.40;99.90;;;;;;5063258;28;20036;-42
2022/12/17 15:45:30;;;;;;;49.95;17.23;;;0.40;99.90;;;;;;5064173;28;20400;-43
2022/12/17 15:47:56;;;;;;;51.97;16.95;;;0.40;99.90;;;;;;5061287;28;20099;-44
2022/12/17 15:50:22;;;;;;;55.28;16.05;;;0.30;99.90;;;;;;5057898;28;20107;-44
2022/12/17 15:52:47;;;;;;;56.85;16.15;;;0.20;99.90;;;;;;5054481;28;20030;-44
2022/12/17 15:55:14;;;;;;;55.90;15.02;;;0.20;99.90;;;;;;5056714;28;20024;-42
2022/12/17 15:57:39;;;;;;;56.60;16.55;;;0.20;99.90;;;;;;5062901;28;20029;-37
2022/12/17 16:00:06;;;;;;;50.90;14.85;;;0.20;99.90;;;;;;5068039;28;20034;-39
2022/12/17 16:02:31;;;;;;;55.05;17.70;;;0.30;99.90;;;;;;5058756;28;20105;-36
2022/12/17 16:04:57;;;;;;;48.83;14.93;;;0.30;99.90;;;;;;5055074;28;20097;-31
2022/12/17 16:07:23;;;;;;;56.67;14.80;;;0.30;99.90;;;;;;5060327;28;20032;-52
2022/12/17 16:09:48;;;;;;;45.17;15.85;;;0.30;99.90;;;;;;5024939;28;1078576;-35
2022/12/17 16:12:14;;;;;;;55.97;16.75;;;0.30;99.90;;;;;;5071591;28;20027;-35
2022/12/17 16:14:40;;;;;;;62.80;16.80;;;0.30;99.90;;;;;;5067746;28;20028;-38
2022/12/17 16:17:05;;;;;;;48.78;15.15;;;0.20;99.90;;;;;;5070637;28;20040;-34
2022/12/17 16:19:31;;;;;;;53.97;16.67;;;0.20;99.90;;;;;;5067171;28;20116;-34
2022/12/17 16:21:56;;;;;;;53.92;14.00;;;0.10;99.90;;;;;;5053807;28;20493;-33
2022/12/17 16:24:22;;;;;;;58.50;14.57;;;0.20;99.90;;;;;;5062488;28;20032;-42
2022/12/17 16:26:48;;;;;;;55.30;15.88;;;0.20;99.90;;;;;;5057238;28;20107;-35
2022/12/17 16:29:13;;;;;;;45.33;14.25;;;0.10;99.90;;;;;;5067075;28;20025;-33
2022/12/17 16:31:39;;;;;;;49.40;14.93;;;0.10;99.90;;;;;;5065482;28;20441;-39
2022/12/17 16:34:09;;;;;;;55.58;15.30;;;0.10;99.90;;;;;;5069299;28;20480;-34
2022/12/17 16:36:35;;;;;;;46.22;16.98;;;0.20;99.90;;;;;;5063404;28;20503;-34
2022/12/17 16:39:04;;;;;;;58.95;16.52;;;0.20;99.90;;;;;;5064586;28;20078;-32
2022/12/17 16:41:31;;;;;;;62.95;18.20;;;0.20;99.90;;;;;;5058332;28;20401;-37
2022/12/17 16:43:58;;;;;;;55.58;15.20;;;0.20;99.90;;;;;;5062378;28;20476;-37
2022/12/17 16:46:31;;;;;;;56.83;16.00;;;0.20;99.90;;;;;;5064754;28;20024;-35
2022/12/17 16:49:26;;;;;;;50.33;15.23;;;0.20;99.90;;;;;;5059506;28;20091;-41
2022/12/17 16:51:53;;;;;;;63.15;15.20;;;0.20;99.90;;;;;;5056875;28;20466;-36
2022/12/17 16:54:24;;;;;;;48.30;15.77;;;0.20;99.90;;;;;;5061753;28;20071;-37
2022/12/17 16:56:50;;;;;;;60.10;18.08;;;0.10;99.90;;;;;;5053779;28;20101;-33
2022/12/17 16:59:16;;;;;;;54.10;17.08;;;0.10;99.90;;;;;;5053273;28;20032;-34
2022/12/17 17:01:46;;;;;;;39.92;14.75;;;0.10;99.90;;;;;;5053118;28;20162;-36
2022/12/17 17:04:14;;;;;;;51.13;15.48;;;0.10;99.90;;;;;;5053937;28;20033;-34
2022/12/17 17:06:43;;;;;;;50.17;16.55;;;0.00;99.90;;;;;;5053165;28;20017;-35
2022/12/17 17:09:09;;;;;;;64.70;16.90;;;-0.10;99.90;;;;;;5052716;28;20417;-46
2022/12/17 17:11:35;;;;;;;53.75;15.98;;;-0.10;99.90;;;;;;5052355;28;20416;-41
2022/12/17 17:14:02;;;;;;;57.85;16.05;;;-0.10;99.90;;;;;;5053073;28;20025;-34
2022/12/17 17:16:29;;;;;;;49.92;15.45;;;-0.10;99.90;;;;;;5052937;28;20032;-33
2022/12/17 17:18:54;;;;;;;44.10;13.90;;;-0.10;99.90;;;;;;5063390;28;20537;-35
2022/12/17 17:21:30;;;;;;;53.80;14.15;;;-0.10;99.90;;;;;;5072865;28;20020;-42
2022/12/17 17:23:57;;;;;;;49.55;15.25;;;-0.20;99.90;;;;;;5055051;28;20111;-43
2022/12/17 17:26:23;;;;;;;39.17;11.38;;;-0.20;99.90;;;;;;5071698;28;20032;-45
2022/12/17 17:28:49;;;;;;;56.28;15.23;;;-0.30;99.90;;;;;;5073146;28;20456;-42
2022/12/17 17:31:15;;;;;;;52.75;16.45;;;-0.30;99.90;;;;;;5068914;28;20094;-42
2022/12/17 17:33:43;;;;;;;52.22;16.33;;;-0.30;99.90;;;;;;5071091;28;20107;-42
2022/12/17 17:36:20;;;;;;;53.45;16.50;;;-0.20;99.90;;;;;;5073185;28;20480;-43
2022/12/17 17:38:47;;;;;;;57.75;15.18;;;-0.20;99.90;;;;;;5072831;28;20024;-43
2022/12/17 17:41:16;;;;;;;54.92;14.98;;;-0.30;99.90;;;;;;5072638;28;20036;-43
2022/12/17 17:43:42;;;;;;;54.50;15.70;;;-0.30;99.90;;;;;;5072957;28;20016;-42
2022/12/17 17:46:09;;;;;;;51.35;14.88;;;-0.40;99.90;;;;;;5072752;28;20758;-43
2022/12/17 17:48:35;;;;;;;51.38;14.75;;;-0.40;99.90;;;;;;5070969;28;20361;-43
2022/12/17 17:51:04;;;;;;;46.55;14.80;;;-0.30;99.90;;;;;;5070743;28;20040;-43
2022/12/17 17:53:29;;;;;;;56.25;17.42;;;-0.20;99.90;;;;;;5072868;28;20025;-33
2022/12/17 17:56:01;;;;;;;52.08;15.60;;;-0.20;99.90;;;;;;5072606;28;20499;-36
2022/12/17 17:58:27;;;;;;;50.67;14.80;;;-0.20;99.90;;;;;;5070645;28;20024;-37
2022/12/17 18:00:53;;;;;;;54.10;15.68;;;-0.30;99.90;;;;;;5072403;28;20039;-34
2022/12/17 18:03:18;;;;;;;49.60;14.60;;;-0.30;99.90;;;;;;5071014;28;20086;-32
2022/12/17 18:05:44;;;;;;;62.35;17.20;;;-0.30;99.90;;;;;;5072395;28;20376;-52
2022/12/17 18:08:09;;;;;;;55.85;16.73;;;-0.30;99.90;;;;;;5072513;28;20511;-37
2022/12/17 18:10:35;;;;;;;51.22;15.52;;;-0.20;99.90;;;;;;5070610;28;20033;-34
2022/12/17 18:15:45;;;;;;;59.70;14.65;;;-0.20;99.90;;;;;;5072709;28;20035;-34
2022/12/17 18:18:10;;;;;;;60.38;17.30;;;-0.10;99.90;;;;;;5072237;28;20025;-34
2022/12/17 18:20:36;;;;;;;49.85;14.98;;;-0.10;99.90;;;;;;5070331;28;20020;-35
2022/12/17 18:23:02;;;;;;;51.40;15.85;;;-0.20;99.90;;;;;;5071696;28;20217;-34
2022/12/17 18:25:27;;;;;;;63.80;17.73;;;-0.10;99.90;;;;;;5052224;28;20100;-34
2022/12/17 18:27:53;;;;;;;57.60;15.90;;;-0.10;99.90;;;;;;5051728;28;20465;-31
2022/12/17 18:30:19;;;;;;;64.20;16.98;;;-0.10;99.90;;;;;;5050813;28;20396;-38
2022/12/17 18:32:45;;;;;;;55.47;15.32;;;-0.10;99.90;;;;;;5052274;28;20056;-36
2022/12/17 18:35:10;;;;;;;52.22;16.60;;;0.00;99.90;;;;;;5060221;28;20064;-33
2022/12/17 18:37:36;;;;;;;58.78;15.75;;;-0.10;99.90;;;;;;5071711;28;20078;-32
2022/12/17 18:40:03;;;;;;;52.00;15.55;;;-0.20;99.90;;;;;;5070730;28;20030;-35
2022/12/17 18:45:14;;;;;;;64.45;17.13;;;-0.30;99.90;;;;;;5073575;28;20158;-38
2022/12/17 18:47:41;;;;;;;55.10;15.20;;;-0.30;99.90;;;;;;5075710;28;20495;-37
2022/12/17 18:50:08;;;;;;;53.75;16.23;;;-0.20;99.90;;;;;;5074124;28;20020;-31
2022/12/17 18:52:33;;;;;;;56.63;17.35;;;-0.20;99.90;;;;;;5075885;28;20021;-32
2022/12/17 18:54:59;;;;;;;52.65;16.45;;;-0.20;99.90;;;;;;5075639;28;20608;-32
2022/12/17 18:57:24;;;;;;;47.88;15.68;;;-0.20;99.90;;;;;;5075586;28;20491;-37
2022/12/17 18:59:50;;;;;;;57.10;15.43;;;-0.20;99.90;;;;;;5075541;28;20028;-35
2022/12/17 19:02:16;;;;;;;49.25;14.57;;;-0.20;99.90;;;;;;5075433;28;20116;-39
2022/12/17 19:04:42;;;;;;;52.60;14.73;;;-0.30;99.90;;;;;;5073605;28;20108;-33
2022/12/17 19:07:07;;;;;;;51.63;15.30;;;-0.40;99.90;;;;;;5075623;28;20013;-37
2022/12/17 19:09:34;;;;;;;57.20;16.30;;;-0.30;99.90;;;;;;5075186;28;20124;-34
2022/12/17 19:12:00;;;;;;;53.53;16.33;;;-0.30;99.90;;;;;;5074276;28;20036;-34
2022/12/17 19:14:26;;;;;;;52.67;15.95;;;-0.30;99.90;;;;;;5075280;28;20029;-31
2022/12/17 19:16:54;;;;;;;50.08;15.90;;;-0.20;99.90;;;;;;5075175;28;20446;-34
2022/12/17 19:19:21;;;;;;;57.58;17.65;;;-0.20;99.90;;;;;;5075202;28;20044;-34
2022/12/17 19:21:47;;;;;;;48.92;15.25;;;-0.30;99.90;;;;;;5072059;28;20028;-36
2022/12/17 19:24:15;;;;;;;53.17;16.30;;;-0.30;99.90;;;;;;5064563;28;20108;-38
2022/12/17 19:26:41;;;;;;;52.25;15.85;;;-0.40;99.90;;;;;;5055034;28;20491;-40
2022/12/17 19:29:09;;;;;;;48.83;14.20;;;-0.50;99.90;;;;;;5055004;28;20021;-37
2022/12/17 19:31:35;;;;;;;50.58;14.93;;;-0.50;99.90;;;;;;5054952;28;20496;-34
2022/12/17 19:34:03;;;;;;;47.95;14.85;;;-0.60;99.90;;;;;;5055145;28;20013;-34
2022/12/17 19:36:31;;;;;;;46.58;15.05;;;-0.50;99.90;;;;;;5068832;28;20158;-35
2022/12/17 19:38:59;;;;;;;56.85;15.18;;;-0.50;99.90;;;;;;5074749;28;20024;-34
2022/12/17 19:41:26;;;;;;;58.38;15.38;;;-0.50;99.90;;;;;;5074606;28;20078;-59
2022/12/17 19:43:54;;;;;;;54.08;15.80;;;-0.60;99.90;;;;;;5074790;28;20600;-38
2022/12/17 19:46:21;;;;;;;55.60;17.48;;;-0.60;99.90;;;;;;5074590;28;20384;-34
2022/12/17 19:48:48;;;;;;;55.47;16.23;;;-0.60;99.90;;;;;;5074813;28;20028;-31
2022/12/17 19:51:17;;;;;;;51.10;15.30;;;-0.60;99.90;;;;;;5063430;28;20033;-45
2022/12/17 19:53:43;;;;;;;;;;;-0.60;99.90;;;;;;5054861;28;20569;-43
2022/12/17 19:56:16;;;;;;;65.75;16.83;;;-0.50;99.90;;;;;;5053452;28;20360;-37
2022/12/17 19:58:43;;;;;;;62.88;16.92;;;-0.50;99.90;;;;;;5054662;28;20539;-34
2022/12/17 20:01:17;;;;;;;58.28;16.33;;;-0.40;99.90;;;;;;5054342;28;20442;-35
2022/12/17 20:03:44;;;;;;;62.28;16.50;;;-0.30;99.90;;;;;;5054337;28;20032;-34
2022/12/17 20:06:11;;;;;;;55.72;15.48;;;-0.40;99.90;;;;;;5054358;28;20036;-36
2022/12/17 20:08:37;;;;;;;62.30;16.75;;;-0.50;99.90;;;;;;5054168;28;20566;-32
2022/12/17 20:13:55;;;;;;;52.80;17.00;;;-0.50;99.90;;;;;;5069303;28;20063;-33
2022/12/17 20:16:22;;;;;;;61.22;16.23;;;-0.60;99.90;;;;;;5074097;28;20031;-37
2022/12/17 20:18:48;;;;;;;64.65;17.15;;;-0.60;99.90;;;;;;5074273;28;20405;-38
2022/12/17 20:21:13;;;;;;;55.65;16.05;;;-0.60;99.90;;;;;;5072114;28;20033;-44
2022/12/17 20:23:39;;;;;;;51.95;14.73;;;-0.60;99.90;;;;;;5068567;28;20100;-32
2022/12/17 20:26:07;;;;;;;60.42;16.63;;;-0.50;99.90;;;;;;5073967;28;20491;-38
2022/12/17 20:28:33;;;;;;;61.38;17.77;;;-0.60;99.90;;;;;;5073884;28;20031;-36
2022/12/17 20:31:00;;;;;;;52.22;17.23;;;-0.70;99.90;;;;;;5071926;28;20070;-34
2022/12/17 20:33:26;;;;;;;59.97;18.58;;;-0.60;99.90;;;;;;5073731;28;20108;-33
2022/12/17 20:35:52;;;;;;;58.00;17.42;;;-0.70;99.90;;;;;;5071922;28;20453;-34
2022/12/17 20:38:18;;;;;;;58.63;17.38;;;-0.70;99.90;;;;;;5072705;28;20032;-37
2022/12/17 20:40:44;;;;;;;60.20;18.17;;;-0.70;99.90;;;;;;5072165;28;20017;-39
2022/12/17 20:43:09;;;;;;;62.75;18.25;;;-0.80;99.90;;;;;;5072350;28;20028;-33
2022/12/17 20:45:35;;;;;;;67.97;19.75;;;-0.90;99.90;;;;;;5073399;28;20473;-38
2022/12/17 20:48:01;;;;;;;62.28;17.48;;;-0.90;99.90;;;;;;5065577;28;20492;-36
2022/12/17 20:50:26;;;;;;;65.13;19.17;;;-0.90;99.90;;;;;;5053451;28;20517;-35
2022/12/17 20:52:52;;;;;;;74.30;19.30;;;-0.90;99.90;;;;;;5067199;28;20138;-36
2022/12/17 20:55:18;;;;;;;74.60;18.58;;;-0.90;99.90;;;;;;5053413;28;20110;-47
2022/12/17 20:57:43;;;;;;;69.30;18.98;;;-0.80;99.90;;;;;;5053258;28;20102;-35
2022/12/17 21:02:55;;;;;;;68.70;20.25;;;-0.80;99.90;;;;;;5053216;28;20508;-33
2022/12/17 21:05:21;;;;;;;90.18;20.95;;;-0.70;99.90;;;;;;5052874;28;20048;-36
2022/12/17 21:08:07;;;;;;;63.92;18.15;;;-0.60;99.90;;;;;;5064807;28;20136;-35
2022/12/17 21:10:33;;;;;;;71.28;17.98;;;-0.70;99.90;;;;;;5073096;28;20504;-33
2022/12/17 21:15:48;;;;;;;74.80;17.98;;;-0.70;99.90;;;;;;5073067;28;20463;-33
2022/12/17 21:18:14;;;;;;;73.30;19.20;;;-0.80;99.90;;;;;;5072995;28;20059;-37
2022/12/17 21:20:40;;;;;;;68.45;16.85;;;-0.80;99.90;;;;;;5071727;28;20538;-38
2022/12/17 21:23:06;;;;;;;63.63;16.05;;;-0.90;99.90;;;;;;5069953;28;20033;-36
2022/12/17 21:25:31;;;;;;;61.67;17.42;;;-0.90;99.90;;;;;;5052177;28;20473;-33
2022/12/17 21:27:57;;;;;;;58.65;17.00;;;-0.90;99.90;;;;;;5053190;28;20025;-36
2022/12/17 21:30:22;;;;;;;54.65;16.83;;;-1.00;99.90;;;;;;5052852;28;20428;-33
2022/12/17 21:32:48;;;;;;;64.15;17.20;;;-1.00;99.90;;;;;;5052898;28;20497;-38
2022/12/17 21:35:14;;;;;;;58.25;16.17;;;-1.10;99.90;;;;;;5052784;28;20021;-36
2022/12/17 21:37:40;;;;;;;72.53;18.45;;;-1.10;99.90;;;;;;5063401;28;20362;-36
2022/12/17 21:40:06;;;;;;;65.80;19.70;;;-1.00;99.90;;;;;;5072746;28;20031;-36
2022/12/17 21:45:16;;;;;;;68.25;19.98;;;-0.90;99.90;;;;;;5072746;28;20107;-33
2022/12/17 21:47:41;;;;;;;63.63;17.17;;;-0.90;99.90;;;;;;5072649;28;20056;-39
2022/12/17 21:50:07;;;;;;;72.47;17.73;;;-0.90;99.90;;;;;;5072731;28;20027;-42
2022/12/17 21:52:33;;;;;;;63.85;17.02;;;-0.90;99.90;;;;;;5070906;28;20032;-35
2022/12/17 21:54:58;;;;;;;66.70;18.55;;;-0.90;99.90;;;;;;5071521;28;20032;-39
2022/12/17 21:57:24;;;;;;;62.33;17.20;;;-0.80;99.90;;;;;;5071703;28;20028;-35
2022/12/17 21:59:49;;;;;;;49.42;15.35;;;-0.70;99.90;;;;;;5071792;28;20021;-35
2022/12/17 22:02:15;;;;;;;59.80;16.85;;;-0.70;99.90;;;;;;5052514;28;20029;-35
2022/12/17 22:04:41;;;;;;;59.92;17.98;;;-0.70;99.90;;;;;;5052571;28;20017;-33
2022/12/17 22:07:06;;;;;;;87.85;26.80;;;-0.80;99.90;;;;;;5053409;28;20433;-37
2022/12/17 22:09:32;;;;;;;101.32;32.10;;;-0.90;99.90;;;;;;5048957;28;20048;-34
2022/12/17 22:14:45;;;;;;;57.60;15.88;;;-0.90;99.90;;;;;;5051640;28;20056;-37
2022/12/17 22:17:11;;;;;;;59.85;15.63;;;-1.00;99.90;;;;;;5052351;28;20056;-38
2022/12/17 22:19:36;;;;;;;52.03;15.18;;;-1.00;99.90;;;;;;5053028;28;20442;-35
2022/12/17 22:22:24;;;;;;;60.05;15.45;;;-1.00;99.90;;;;;;5055828;28;20061;-37
2022/12/17 22:24:49;;;;;;;53.15;14.27;;;-1.00;99.90;;;;;;5071735;28;20020;-35
2022/12/17 22:27:15;;;;;;;48.35;14.25;;;-1.00;99.90;;;;;;5076263;28;20016;-37
2022/12/17 22:35:09;;;;;;;52.28;16.10;;;-1.10;99.90;;;;;;5075968;28;20128;-32
2022/12/17 22:37:35;;;;;;;54.55;15.73;;;-1.00;99.90;;;;;;5074475;28;20108;-37
2022/12/17 22:40:01;;;;;;;62.78;17.88;;;-1.00;99.90;;;;;;5076008;28;20055;-35
2022/12/17 22:45:10;;;;;;;52.53;16.15;;;-1.10;99.90;;;;;;5062952;28;20091;-33
2022/12/17 22:47:36;;;;;;;57.17;16.40;;;-1.20;99.90;;;;;;5055325;28;20029;-38
2022/12/17 22:50:01;;;;;;;50.50;15.35;;;-1.20;99.90;;;;;;5055801;28;20163;-41
2022/12/17 22:52:27;;;;;;;54.28;15.80;;;-1.20;99.90;;;;;;5055598;28;20462;-35
2022/12/17 22:54:53;;;;;;;46.63;14.90;;;-1.20;99.90;;;;;;5055614;28;20029;-32
2022/12/17 22:57:18;;;;;;;48.67;15.10;;;-1.30;99.90;;;;;;5060839;28;20461;-34
2022/12/17 22:59:47;;;;;;;53.90;15.63;;;-1.40;99.90;;;;;;5061212;28;20028;-36
2022/12/17 23:02:12;;;;;;;68.10;18.83;;;-1.30;99.90;;;;;;5065064;28;20025;-37
2022/12/17 23:04:38;;;;;;;50.20;15.57;;;-1.30;99.90;;;;;;5062454;28;20135;-31
2022/12/17 23:07:03;;;;;;;47.90;15.23;;;-1.30;99.90;;;;;;5059243;28;20028;-34
2022/12/17 23:09:29;;;;;;;58.03;14.60;;;-1.30;99.90;;;;;;5057478;28;20111;-33
2022/12/17 23:11:55;;;;;;;61.63;15.82;;;-1.20;99.90;;;;;;5057710;28;20086;-35
2022/12/17 23:14:20;;;;;;;51.05;15.00;;;-1.20;99.90;;;;;;5056536;28;20052;-40
2022/12/17 23:16:46;;;;;;;53.10;14.20;;;-1.20;99.90;;;;;;5073072;28;20045;-37
2022/12/17 23:19:12;;;;;;;62.78;17.02;;;-1.20;99.90;;;;;;5067283;28;20457;-33
2022/12/17 23:21:37;;;;;;;67.55;17.60;;;-1.30;99.90;;;;;;5057636;28;20067;-35
2022/12/17 23:24:04;;;;;;;60.55;16.42;;;-1.20;99.90;;;;;;5065473;28;20021;-35
2022/12/17 23:26:33;;;;;;;45.45;14.20;;;-1.20;99.90;;;;;;5074783;28;20052;-35
2022/12/17 23:29:01;;;;;;;57.75;17.17;;;-1.10;99.90;;;;;;5068501;28;20044;-34
2022/12/17 23:31:30;;;;;;;55.67;15.00;;;-1.10;99.90;;;;;;5064630;28;20151;-34
2022/12/17 23:33:56;;;;;;;55.58;18.80;;;-1.20;99.90;;;;;;5060526;28;20512;-33
2022/12/17 23:36:24;;;;;;;61.10;16.77;;;-1.20;99.90;;;;;;5063840;28;20039;-42
2022/12/17 23:38:51;;;;;;;47.83;16.00;;;-1.10;99.90;;;;;;5055432;28;20473;-38
2022/12/17 23:41:19;;;;;;;60.50;15.95;;;-1.10;99.90;;;;;;5058484;28;20540;-37
2022/12/17 23:43:45;;;;;;;51.03;15.57;;;-1.20;99.90;;;;;;5058398;28;20036;-35
2022/12/17 23:46:11;;;;;;;62.33;16.80;;;-1.20;99.90;;;;;;5064737;28;20036;-35
2022/12/17 23:48:38;;;;;;;56.30;15.02;;;-1.30;99.90;;;;;;5052866;28;20496;-42
2022/12/17 23:51:05;;;;;;;64.80;18.48;;;-1.30;99.90;;;;;;5057014;28;20381;-32
2022/12/17 23:53:31;;;;;;;46.00;14.65;;;-1.30;99.90;;;;;;5058874;28;20151;-37
2022/12/17 23:56:25;;;;;;;34.92;13.55;;;-1.20;99.90;;;;;;5061210;28;20024;-35
2022/12/17 23:59:01;;;;;;;42.40;13.38;;;-1.40;99.90;;;;;;5070809;28;20457;-35
